createdAt,value
2018-06-13T00:04:58.426Z,16.90
2018-06-13T00:07:26.899Z,16.80
2018-06-13T00:09:55.433Z,16.80
2018-06-13T00:14:52.078Z,17.00
2018-06-13T00:17:20.598Z,17.00
2018-06-13T00:19:49.138Z,16.90
2018-06-13T00:22:17.592Z,16.90
2018-06-13T00:24:46.614Z,16.90
2018-06-13T00:31:36.553Z,16.90
2018-06-13T00:34:05.036Z,17.00
2018-06-13T00:36:33.495Z,16.90
2018-06-13T00:39:02.106Z,16.90
2018-06-13T00:41:30.613Z,16.90
2018-06-13T00:43:59.775Z,16.90
2018-06-13T00:46:28.895Z,16.90
2018-06-13T00:48:57.364Z,17.00
2018-06-13T00:51:25.837Z,17.00
2018-06-13T00:53:54.454Z,17.10
2018-06-13T00:56:30.142Z,17.20
2018-06-13T00:58:58.776Z,17.20
2018-06-13T01:01:27.339Z,17.10
2018-06-13T01:03:57.087Z,17.00
2018-06-13T01:06:26.054Z,17.00
2018-06-13T01:08:54.500Z,17.00
2018-06-13T01:13:51.130Z,17.10
2018-06-13T01:16:19.606Z,17.20
2018-06-13T01:18:48.086Z,17.20
2018-06-13T01:21:18.805Z,17.20
2018-06-13T01:23:47.282Z,17.10
2018-06-13T01:28:45.606Z,17.10
2018-06-13T01:31:36.583Z,17.00
2018-06-13T01:34:05.214Z,17.00
2018-06-13T01:36:33.695Z,16.90
2018-06-13T01:39:02.194Z,16.90
2018-06-13T01:41:30.694Z,16.90
2018-06-13T01:43:59.175Z,16.90
2018-06-13T01:46:28.418Z,16.80
2018-06-13T01:48:57.369Z,16.70
2018-06-13T01:51:25.806Z,16.70
2018-06-13T01:53:54.270Z,16.80
2018-06-13T01:56:22.733Z,16.80
2018-06-13T01:58:51.185Z,16.80
2018-06-13T02:01:19.667Z,16.70
2018-06-13T02:03:48.145Z,16.70
2018-06-13T02:06:17.354Z,16.70
2018-06-13T02:08:45.827Z,16.60
2018-06-13T02:17:39.362Z,16.60
2018-06-13T02:20:07.842Z,16.60
2018-06-13T02:22:36.287Z,16.60
2018-06-13T02:25:04.786Z,16.60
2018-06-13T02:27:33.266Z,16.60
2018-06-13T02:30:01.735Z,16.70
2018-06-13T02:32:30.296Z,16.60
2018-06-13T02:34:58.767Z,16.60
2018-06-13T02:37:27.230Z,16.60
2018-06-13T02:39:56.489Z,16.60
2018-06-13T02:42:24.962Z,16.50
2018-06-13T02:44:53.433Z,16.60
2018-06-13T02:47:22.635Z,16.60
2018-06-13T02:49:51.127Z,16.60
2018-06-13T02:52:19.589Z,16.70
2018-06-13T02:54:48.068Z,16.70
2018-06-13T02:57:17.473Z,16.60
2018-06-13T02:59:46.914Z,16.60
2018-06-13T03:17:50.178Z,16.60
2018-06-13T03:20:18.739Z,16.70
2018-06-13T03:22:47.340Z,16.30
2018-06-13T03:27:45.722Z,16.40
2018-06-13T03:35:12.052Z,16.70
2018-06-13T03:37:40.506Z,16.70
2018-06-13T03:40:09.374Z,16.90
2018-06-13T03:42:37.923Z,16.80
2018-06-13T03:45:06.529Z,16.90
2018-06-13T03:47:36.235Z,16.90
2018-06-13T03:50:05.027Z,16.90
2018-06-13T03:52:33.602Z,17.00
2018-06-13T03:55:02.101Z,17.10
2018-06-13T03:57:31.003Z,17.10
2018-06-13T03:59:59.576Z,17.20
2018-06-13T04:02:28.563Z,17.20
2018-06-13T04:04:57.106Z,17.30
2018-06-13T04:09:53.762Z,17.30
2018-06-13T04:14:50.398Z,17.40
2018-06-13T04:17:18.981Z,17.30
2018-06-13T04:19:47.463Z,17.40
2018-06-13T04:22:17.378Z,17.50
2018-06-13T04:24:46.224Z,17.50
2018-06-13T04:31:36.611Z,17.50
2018-06-13T04:34:05.079Z,17.50
2018-06-13T04:36:33.550Z,17.50
2018-06-13T04:39:02.076Z,17.40
2018-06-13T04:41:30.585Z,17.50
2018-06-13T04:43:59.056Z,17.50
2018-06-13T04:46:28.000Z,17.50
2018-06-13T04:48:57.237Z,17.50
2018-06-13T04:51:25.775Z,17.50
2018-06-13T04:56:22.467Z,17.30
2018-06-13T04:58:50.970Z,17.00
2018-06-13T05:01:19.491Z,16.80
2018-06-13T05:08:44.858Z,16.70
2018-06-13T05:11:13.317Z,16.70
2018-06-13T05:13:41.796Z,16.50
2018-06-13T05:16:10.261Z,16.20
2018-06-13T05:18:38.804Z,15.90
2018-06-13T05:21:07.286Z,15.80
2018-06-13T05:23:35.763Z,15.60
2018-06-13T05:26:04.340Z,15.50
2018-06-13T05:28:32.813Z,15.40
2018-06-13T05:31:01.324Z,15.30
2018-06-13T05:33:29.819Z,15.30
2018-06-13T05:35:58.466Z,15.30
2018-06-13T05:38:27.012Z,15.30
2018-06-13T05:43:23.754Z,15.30
2018-06-13T05:45:52.272Z,15.30
2018-06-13T05:48:20.831Z,15.30
2018-06-13T05:50:50.065Z,15.30
2018-06-13T05:53:18.611Z,15.30
2018-06-13T05:58:16.743Z,15.30
2018-06-13T06:00:45.206Z,15.20
2018-06-13T06:12:48.575Z,15.20
2018-06-13T06:15:17.414Z,15.10
2018-06-13T06:17:45.902Z,14.80
2018-06-13T06:30:23.694Z,14.90
2018-06-13T06:32:52.241Z,14.50
2018-06-13T06:37:49.057Z,14.40
2018-06-13T06:40:18.647Z,14.40
2018-06-13T06:42:47.178Z,14.50
2018-06-13T06:47:45.767Z,14.50
2018-06-13T07:00:40.982Z,14.50
2018-06-13T07:03:09.659Z,14.40
2018-06-13T07:05:38.168Z,14.40
2018-06-13T07:08:06.687Z,14.40
2018-06-13T07:10:35.147Z,14.30
2018-06-13T07:13:03.639Z,14.30
2018-06-13T07:15:32.159Z,14.30
2018-06-13T07:18:00.630Z,14.20
2018-06-13T07:22:57.906Z,14.30
2018-06-13T07:25:26.398Z,14.30
2018-06-13T07:27:54.928Z,14.40
2018-06-13T07:30:23.426Z,14.40
2018-06-13T07:32:51.869Z,14.40
2018-06-13T07:35:20.322Z,14.40
2018-06-13T07:37:48.774Z,14.40
2018-06-13T07:42:45.974Z,14.40
2018-06-13T07:53:33.955Z,14.20
2018-06-13T07:56:02.465Z,14.20
2018-06-13T07:58:30.925Z,14.00
2018-06-13T08:01:00.292Z,14.00
2018-06-13T08:03:28.802Z,14.10
2018-06-13T08:08:25.516Z,14.10
2018-06-13T08:10:54.056Z,14.20
2018-06-13T08:13:25.116Z,14.30
2018-06-13T08:15:53.598Z,14.40
2018-06-13T08:18:22.122Z,14.40
2018-06-13T08:23:19.388Z,14.50
2018-06-13T08:25:47.843Z,14.60
2018-06-13T08:28:18.529Z,14.70
2018-06-13T08:30:47.129Z,14.70
2018-06-13T08:52:58.870Z,14.70
2018-06-13T08:55:27.392Z,14.80
2018-06-13T08:57:55.871Z,14.70
2018-06-13T09:00:24.535Z,14.80
2018-06-13T09:02:54.293Z,14.90
2018-06-13T09:05:22.746Z,15.00
2018-06-13T09:10:19.445Z,15.20
2018-06-13T09:12:47.907Z,15.30
2018-06-13T09:15:17.860Z,15.40
2018-06-13T09:17:46.371Z,15.50
2018-06-13T09:28:21.395Z,15.70
2018-06-13T09:30:49.886Z,15.70
2018-06-13T09:33:18.368Z,15.60
2018-06-13T09:35:47.982Z,15.60
2018-06-13T09:38:17.522Z,15.60
2018-06-13T09:40:46.012Z,15.70
2018-06-13T09:45:44.015Z,15.70
2018-06-13T09:48:12.571Z,15.80
2018-06-13T09:50:41.127Z,15.90
2018-06-13T09:53:10.110Z,15.90
2018-06-13T09:55:38.695Z,16.00
2018-06-13T09:58:07.841Z,16.00
2018-06-13T10:00:41.605Z,16.00
2018-06-13T10:03:10.877Z,16.00
2018-06-13T10:05:39.338Z,16.10
2018-06-13T10:08:07.838Z,16.20
2018-06-13T10:10:36.358Z,16.20
2018-06-13T10:13:04.894Z,16.10
2018-06-13T10:15:33.303Z,16.00
2018-06-13T10:18:02.298Z,16.00
2018-06-13T10:20:30.782Z,15.90
2018-06-13T10:22:59.274Z,15.90
2018-06-13T10:25:27.824Z,15.90
2018-06-13T10:27:56.307Z,15.80
2018-06-13T10:30:24.771Z,15.80
2018-06-13T10:32:53.279Z,15.80
2018-06-13T10:35:21.737Z,15.80
2018-06-13T10:37:50.183Z,15.70
2018-06-13T10:40:19.116Z,15.70
2018-06-13T10:42:47.639Z,15.80
2018-06-13T10:53:59.952Z,15.80
2018-06-13T10:56:29.309Z,15.80
2018-06-13T10:58:57.751Z,15.50
2018-06-13T11:01:27.047Z,15.40
2018-06-13T11:03:58.358Z,15.40
2018-06-13T11:06:26.807Z,15.30
2018-06-13T11:08:55.319Z,15.30
2018-06-13T11:11:23.779Z,15.30
2018-06-13T11:13:52.590Z,15.20
2018-06-13T11:16:21.093Z,15.20
2018-06-13T11:18:49.543Z,15.20
2018-06-13T11:21:18.044Z,15.10
2018-06-13T11:23:47.049Z,15.20
2018-06-13T11:41:16.476Z,15.30
2018-06-13T11:44:55.952Z,15.30
2018-06-13T11:47:25.340Z,15.00
2018-06-13T11:49:53.878Z,15.20
2018-06-13T11:52:23.446Z,15.30
2018-06-13T11:54:52.905Z,15.30
2018-06-13T11:57:21.655Z,15.40
2018-06-13T11:59:50.282Z,15.50
2018-06-13T12:02:19.375Z,15.50
2018-06-13T12:04:50.173Z,15.70
2018-06-13T12:13:27.217Z,15.70
2018-06-13T12:15:56.402Z,15.60
2018-06-13T12:18:24.988Z,15.40
2018-06-13T12:20:54.168Z,15.40
2018-06-13T12:23:22.821Z,15.40
2018-06-13T12:28:19.506Z,15.50
2018-06-13T12:30:49.194Z,15.40
2018-06-13T12:33:18.155Z,15.50
2018-06-13T12:35:47.351Z,15.60
2018-06-13T12:38:17.542Z,15.60
2018-06-13T12:40:46.220Z,15.60
2018-06-13T12:53:44.561Z,15.60
2018-06-13T12:56:13.014Z,15.60
2018-06-13T12:58:41.513Z,15.20
2018-06-13T13:01:10.019Z,15.20
2018-06-13T13:03:38.479Z,15.10
2018-06-13T13:06:08.581Z,15.10
2018-06-13T13:08:37.195Z,15.20
2018-06-13T13:11:05.791Z,15.20
2018-06-13T13:13:34.286Z,15.20
2018-06-13T13:16:02.826Z,15.20
2018-06-13T13:18:31.286Z,15.10
2018-06-13T13:23:28.067Z,15.20
2018-06-13T13:25:56.825Z,15.10
2018-06-13T13:30:53.571Z,15.10
2018-06-13T13:33:22.079Z,15.10
2018-06-13T13:35:50.607Z,15.10
2018-06-13T13:38:19.607Z,15.20
2018-06-13T13:40:48.064Z,15.30
2018-06-13T13:43:17.473Z,15.30
2018-06-13T13:45:46.283Z,15.30
2018-06-13T13:54:22.913Z,15.40
2018-06-13T13:56:51.530Z,15.50
2018-06-13T13:59:20.219Z,15.30
2018-06-13T14:01:49.497Z,15.40
2018-06-13T14:04:18.860Z,15.40
2018-06-13T14:06:48.050Z,15.50
2018-06-13T14:09:17.549Z,15.50
2018-06-13T14:11:46.178Z,15.50
2018-06-13T14:24:30.526Z,15.50
2018-06-13T14:26:59.223Z,15.40
2018-06-13T14:29:27.730Z,15.20
2018-06-13T14:31:57.222Z,15.10
2018-06-13T14:34:25.719Z,15.10
2018-06-13T14:36:54.170Z,15.00
2018-06-13T14:39:22.763Z,15.00
2018-06-13T14:41:51.266Z,15.00
2018-06-13T14:44:19.922Z,15.00
2018-06-13T14:46:48.651Z,15.00
2018-06-13T14:49:17.532Z,14.90
2018-06-13T14:51:48.418Z,14.90
2018-06-13T14:56:45.634Z,14.90
2018-06-13T15:18:57.924Z,14.90
2018-06-13T15:21:26.379Z,14.90
2018-06-13T15:31:19.804Z,14.50
2018-06-13T15:33:50.143Z,14.70
2018-06-13T15:36:18.844Z,14.60
2018-06-13T15:38:47.563Z,14.50
2018-06-13T15:49:17.551Z,14.30
2018-06-13T15:51:46.139Z,14.30
2018-06-13T16:04:17.603Z,14.00
2018-06-13T16:06:46.290Z,14.00
2018-06-13T16:29:25.226Z,13.70
2018-06-13T16:31:53.881Z,13.80
2018-06-13T16:34:22.377Z,13.60
2018-06-13T16:36:52.175Z,13.70
2018-06-13T16:39:20.730Z,13.70
2018-06-13T16:41:49.243Z,13.80
2018-06-13T16:44:17.740Z,13.80
2018-06-13T16:46:46.512Z,13.90
2018-06-13T17:08:42.651Z,13.90
2018-06-13T17:13:49.373Z,13.70
2018-06-13T17:16:17.851Z,13.80
2018-06-13T17:18:46.931Z,13.90
2018-06-13T17:29:42.720Z,14.00
2018-06-13T17:32:11.199Z,14.00
2018-06-13T17:34:39.781Z,14.10
2018-06-13T17:37:08.411Z,14.10
2018-06-13T17:39:36.963Z,14.10
2018-06-13T17:42:05.472Z,14.10
2018-06-13T17:44:33.995Z,14.30
2018-06-13T17:47:02.487Z,14.40
2018-06-13T17:49:31.486Z,14.50
2018-06-13T17:51:59.991Z,14.60
2018-06-13T17:54:28.515Z,14.60
2018-06-13T17:59:25.799Z,14.40
2018-06-13T18:01:54.351Z,14.40
2018-06-13T18:04:22.819Z,14.30
2018-06-13T18:06:51.465Z,14.30
2018-06-13T18:09:19.927Z,14.20
2018-06-13T18:11:49.279Z,14.10
2018-06-13T18:14:17.826Z,14.10
2018-06-13T18:16:46.392Z,14.10
2018-06-13T18:27:40.230Z,14.00
2018-06-13T18:30:08.798Z,14.00
2018-06-13T18:32:37.277Z,13.90
2018-06-13T18:35:06.950Z,14.00
2018-06-13T18:40:03.714Z,14.00
2018-06-13T18:42:32.210Z,14.00
2018-06-13T18:45:00.774Z,14.10
2018-06-13T18:47:29.256Z,14.10
2018-06-13T18:49:57.998Z,14.20
2018-06-13T18:52:26.542Z,14.20
2018-06-13T18:57:23.359Z,14.20
2018-06-13T18:59:51.857Z,14.10
2018-06-13T19:02:20.449Z,14.10
2018-06-13T19:04:49.220Z,14.10
2018-06-13T19:07:17.693Z,14.10
2018-06-13T19:09:47.405Z,14.10
2018-06-13T19:23:03.479Z,14.10
2018-06-13T19:25:31.994Z,14.10
2018-06-13T19:28:00.450Z,13.80
2018-06-13T19:30:29.015Z,13.90
2018-06-13T19:32:57.563Z,13.90
2018-06-13T19:35:26.165Z,13.90
2018-06-13T19:37:54.707Z,14.00
2018-06-13T19:40:23.354Z,13.90
2018-06-13T19:42:51.961Z,14.00
2018-06-13T19:45:21.044Z,14.00
2018-06-13T19:47:55.579Z,14.00
2018-06-13T19:52:57.438Z,13.90
2018-06-13T19:55:31.421Z,13.90
2018-06-13T19:58:00.525Z,13.80
2018-06-13T20:00:29.166Z,13.90
2018-06-13T20:03:03.542Z,13.80
2018-06-13T20:05:37.410Z,13.80
2018-06-13T20:08:06.090Z,13.90
2018-06-13T20:10:34.594Z,13.80
2018-06-13T20:13:09.042Z,13.80
2018-06-13T20:15:42.918Z,13.80
2018-06-13T20:18:16.791Z,13.90
2018-06-13T20:20:45.287Z,13.80
2018-06-13T20:31:36.733Z,13.80
2018-06-13T20:34:05.299Z,13.80
2018-06-13T20:36:34.054Z,13.50
2018-06-13T20:39:03.175Z,13.40
2018-06-13T20:41:31.790Z,13.50
2018-06-13T20:44:00.338Z,13.50
2018-06-13T20:46:29.070Z,13.50
2018-06-13T20:48:57.867Z,13.50
2018-06-13T20:51:26.674Z,13.60
2018-06-13T20:53:55.273Z,13.60
2018-06-13T20:56:23.977Z,13.60
2018-06-13T20:58:52.466Z,13.60
2018-06-13T21:01:21.280Z,13.60
2018-06-13T21:03:49.785Z,13.60
2018-06-13T21:06:18.610Z,13.60
2018-06-13T21:08:47.199Z,13.70
2018-06-13T21:11:18.184Z,13.60
2018-06-13T21:13:47.812Z,13.60
2018-06-13T21:16:17.975Z,13.50
2018-06-13T21:18:46.568Z,13.50
2018-06-13T21:31:36.038Z,13.60
2018-06-13T21:34:04.631Z,13.60
2018-06-13T21:36:33.148Z,13.30
2018-06-13T21:39:01.627Z,13.40
2018-06-13T21:41:30.162Z,13.40
2018-06-13T21:43:58.651Z,13.40
2018-06-13T21:46:27.166Z,13.40
2018-06-13T21:48:55.654Z,13.40
2018-06-13T21:51:24.122Z,13.50
2018-06-13T21:53:52.971Z,13.40
2018-06-13T21:56:21.583Z,13.50
2018-06-13T21:58:50.258Z,13.50
2018-06-13T22:01:18.770Z,13.60
2018-06-13T22:03:47.234Z,13.60
2018-06-13T22:06:17.422Z,13.60
2018-06-13T22:08:46.030Z,13.60
2018-06-13T22:27:07.571Z,13.70
2018-06-13T22:29:36.059Z,13.70
2018-06-13T22:32:04.574Z,13.30
2018-06-13T22:34:33.089Z,13.30
2018-06-13T22:37:01.586Z,13.40
2018-06-13T22:39:30.121Z,13.50
2018-06-13T22:41:58.638Z,13.50
2018-06-13T22:44:27.101Z,13.50
2018-06-13T22:46:55.555Z,13.50
2018-06-13T22:49:24.125Z,13.60
2018-06-13T22:51:52.644Z,13.60
2018-06-13T22:54:21.225Z,13.60
2018-06-13T22:56:49.756Z,13.50
2018-06-13T22:59:18.322Z,13.50
2018-06-13T23:01:46.916Z,13.50
2018-06-13T23:12:55.063Z,13.50
2018-06-13T23:15:23.683Z,13.50
2018-06-13T23:17:53.195Z,13.30
2018-06-13T23:20:21.702Z,13.30
2018-06-13T23:22:50.175Z,13.40
2018-06-13T23:25:18.707Z,13.50
2018-06-13T23:27:47.230Z,13.60
2018-06-13T23:30:17.495Z,13.70
2018-06-13T23:32:45.979Z,13.70
2018-06-13T23:35:15.878Z,13.70
2018-06-13T23:37:44.402Z,13.60
2018-06-13T23:40:12.891Z,13.60
2018-06-13T23:42:41.426Z,13.70
2018-06-13T23:45:10.024Z,13.70
2018-06-13T23:47:38.476Z,13.60
2018-06-13T23:50:07.062Z,13.50
2018-06-13T23:52:35.514Z,13.60
2018-06-13T23:55:04.088Z,13.60
